sensor_id;sensor_type;location;lat;lon;timestamp;P1;durP1;ratioP1;P2;durP2;ratioP2
8952;SDS011;4511;50.890;8.054;2023-11-19T00:02:18;3.50;;;3.20;;
8952;SDS011;4511;50.890;8.054;2023-11-19T00:04:47;4.00;;;3.40;;
8952;SDS011;4511;50.890;8.054;2023-11-19T00:07:13;3.60;;;3.30;;
8952;SDS011;4511;50.890;8.054;2023-11-19T00:09:41;3.40;;;3.00;;
8952;SDS011;4511;50.890;8.054;2023-11-19T00:12:08;3.57;;;3.27;;
8952;SDS011;4511;50.890;8.054;2023-11-19T00:14:35;3.17;;;2.87;;
8952;SDS011;4511;50.890;8.054;2023-11-19T00:17:02;3.70;;;3.40;;
8952;SDS011;4511;50.890;8.054;2023-11-19T00:19:29;3.40;;;3.10;;
8952;SDS011;4511;50.890;8.054;2023-11-19T00:21:57;2.97;;;2.77;;
8952;SDS011;4511;50.890;8.054;2023-11-19T00:24:27;3.00;;;2.77;;
8952;SDS011;4511;50.890;8.054;2023-11-19T00:26:55;3.30;;;3.07;;
8952;SDS011;4511;50.890;8.054;2023-11-19T00:29:22;3.53;;;3.33;;
8952;SDS011;4511;50.890;8.054;2023-11-19T00:31:49;5.03;;;3.80;;
8952;SDS011;4511;50.890;8.054;2023-11-19T00:34:16;4.10;;;3.77;;
8952;SDS011;4511;50.890;8.054;2023-11-19T00:36:46;4.30;;;3.90;;
8952;SDS011;4511;50.890;8.054;2023-11-19T00:39:14;4.07;;;3.47;;
8952;SDS011;4511;50.890;8.054;2023-11-19T00:41:42;3.60;;;3.30;;
8952;SDS011;4511;50.890;8.054;2023-11-19T00:44:11;4.00;;;3.60;;
8952;SDS011;4511;50.890;8.054;2023-11-19T00:46:37;4.77;;;4.30;;
8952;SDS011;4511;50.890;8.054;2023-11-19T00:49:04;4.93;;;4.27;;
8952;SDS011;4511;50.890;8.054;2023-11-19T00:51:31;6.33;;;4.97;;
8952;SDS011;4511;50.890;8.054;2023-11-19T00:53:58;4.23;;;3.83;;
8952;SDS011;4511;50.890;8.054;2023-11-19T00:56:27;4.80;;;3.50;;
8952;SDS011;4511;50.890;8.054;2023-11-19T00:58:54;5.50;;;3.43;;
8952;SDS011;4511;50.890;8.054;2023-11-19T01:01:21;3.23;;;3.03;;
8952;SDS011;4511;50.890;8.054;2023-11-19T01:03:48;3.00;;;2.80;;
8952;SDS011;4511;50.890;8.054;2023-11-19T01:06:14;3.63;;;3.03;;
8952;SDS011;4511;50.890;8.054;2023-11-19T01:08:52;3.40;;;2.33;;
8952;SDS011;4511;50.890;8.054;2023-11-19T01:11:19;5.20;;;2.70;;
8952;SDS011;4511;50.890;8.054;2023-11-19T01:13:48;2.73;;;2.50;;
8952;SDS011;4511;50.890;8.054;2023-11-19T01:16:15;2.50;;;2.40;;
8952;SDS011;4511;50.890;8.054;2023-11-19T01:18:42;2.43;;;2.30;;
8952;SDS011;4511;50.890;8.054;2023-11-19T01:21:08;2.20;;;2.10;;
8952;SDS011;4511;50.890;8.054;2023-11-19T01:23:35;2.30;;;2.20;;
8952;SDS011;4511;50.890;8.054;2023-11-19T01:26:02;2.10;;;2.00;;
8952;SDS011;4511;50.890;8.054;2023-11-19T01:28:30;2.10;;;2.00;;
8952;SDS011;4511;50.890;8.054;2023-11-19T01:30:58;2.40;;;2.20;;
8952;SDS011;4511;50.890;8.054;2023-11-19T01:33:25;2.30;;;2.20;;
8952;SDS011;4511;50.890;8.054;2023-11-19T01:35:52;3.30;;;2.50;;
8952;SDS011;4511;50.890;8.054;2023-11-19T01:38:20;3.60;;;2.60;;
8952;SDS011;4511;50.890;8.054;2023-11-19T01:40:47;2.30;;;2.10;;
8952;SDS011;4511;50.890;8.054;2023-11-19T01:46:00;2.27;;;2.17;;
8952;SDS011;4511;50.890;8.054;2023-11-19T01:48:28;2.10;;;2.00;;
8952;SDS011;4511;50.890;8.054;2023-11-19T01:50:55;2.30;;;2.20;;
8952;SDS011;4511;50.890;8.054;2023-11-19T01:53:23;2.13;;;2.03;;
8952;SDS011;4511;50.890;8.054;2023-11-19T01:55:50;2.40;;;2.20;;
8952;SDS011;4511;50.890;8.054;2023-11-19T01:58:17;3.10;;;2.37;;
8952;SDS011;4511;50.890;8.054;2023-11-19T02:00:45;3.73;;;2.33;;
8952;SDS011;4511;50.890;8.054;2023-11-19T02:03:14;2.40;;;2.20;;
8952;SDS011;4511;50.890;8.054;2023-11-19T02:05:41;2.20;;;2.10;;
8952;SDS011;4511;50.890;8.054;2023-11-19T02:08:08;2.60;;;2.40;;
8952;SDS011;4511;50.890;8.054;2023-11-19T02:10:35;6.67;;;2.20;;
8952;SDS011;4511;50.890;8.054;2023-11-19T02:13:02;2.47;;;2.27;;
8952;SDS011;4511;50.890;8.054;2023-11-19T02:15:31;2.00;;;1.90;;
8952;SDS011;4511;50.890;8.054;2023-11-19T02:18:15;2.10;;;2.00;;
8952;SDS011;4511;50.890;8.054;2023-11-19T02:20:46;2.00;;;1.90;;
8952;SDS011;4511;50.890;8.054;2023-11-19T02:23:13;1.97;;;1.87;;
8952;SDS011;4511;50.890;8.054;2023-11-19T02:25:40;2.20;;;2.00;;
8952;SDS011;4511;50.890;8.054;2023-11-19T02:28:09;1.90;;;1.80;;
8952;SDS011;4511;50.890;8.054;2023-11-19T02:30:37;2.10;;;1.80;;
8952;SDS011;4511;50.890;8.054;2023-11-19T02:33:04;2.07;;;1.90;;
8952;SDS011;4511;50.890;8.054;2023-11-19T02:35:31;1.80;;;1.70;;
8952;SDS011;4511;50.890;8.054;2023-11-19T02:37:58;3.33;;;1.80;;
8952;SDS011;4511;50.890;8.054;2023-11-19T02:40:25;1.90;;;1.80;;
8952;SDS011;4511;50.890;8.054;2023-11-19T02:42:52;1.70;;;1.70;;
8952;SDS011;4511;50.890;8.054;2023-11-19T02:45:21;2.03;;;1.83;;
8952;SDS011;4511;50.890;8.054;2023-11-19T02:47:49;1.90;;;1.80;;
8952;SDS011;4511;50.890;8.054;2023-11-19T02:50:16;3.17;;;1.90;;
8952;SDS011;4511;50.890;8.054;2023-11-19T02:52:50;5.53;;;2.00;;
8952;SDS011;4511;50.890;8.054;2023-11-19T02:55:18;1.97;;;1.87;;
8952;SDS011;4511;50.890;8.054;2023-11-19T02:57:45;2.07;;;1.90;;
8952;SDS011;4511;50.890;8.054;2023-11-19T03:00:14;2.30;;;2.07;;
8952;SDS011;4511;50.890;8.054;2023-11-19T03:02:42;1.90;;;1.80;;
8952;SDS011;4511;50.890;8.054;2023-11-19T03:05:11;2.50;;;2.00;;
8952;SDS011;4511;50.890;8.054;2023-11-19T03:07:39;1.90;;;1.70;;
8952;SDS011;4511;50.890;8.054;2023-11-19T03:10:07;2.00;;;1.80;;
8952;SDS011;4511;50.890;8.054;2023-11-19T03:12:37;1.90;;;1.80;;
8952;SDS011;4511;50.890;8.054;2023-11-19T03:15:05;7.47;;;2.00;;
8952;SDS011;4511;50.890;8.054;2023-11-19T03:17:34;3.20;;;2.00;;
8952;SDS011;4511;50.890;8.054;2023-11-19T03:20:03;1.90;;;1.80;;
8952;SDS011;4511;50.890;8.054;2023-11-19T03:22:32;1.80;;;1.60;;
8952;SDS011;4511;50.890;8.054;2023-11-19T03:24:59;3.97;;;1.90;;
8952;SDS011;4511;50.890;8.054;2023-11-19T03:27:26;2.80;;;1.90;;
8952;SDS011;4511;50.890;8.054;2023-11-19T03:29:53;2.20;;;1.93;;
8952;SDS011;4511;50.890;8.054;2023-11-19T03:32:20;2.43;;;2.10;;
8952;SDS011;4511;50.890;8.054;2023-11-19T03:34:46;2.70;;;1.77;;
8952;SDS011;4511;50.890;8.054;2023-11-19T03:37:14;1.80;;;1.70;;
8952;SDS011;4511;50.890;8.054;2023-11-19T03:39:42;2.80;;;2.00;;
8952;SDS011;4511;50.890;8.054;2023-11-19T03:42:09;2.90;;;1.80;;
8952;SDS011;4511;50.890;8.054;2023-11-19T03:44:37;2.63;;;2.00;;
8952;SDS011;4511;50.890;8.054;2023-11-19T03:47:03;2.63;;;1.90;;
8952;SDS011;4511;50.890;8.054;2023-11-19T03:49:31;3.57;;;1.80;;
8952;SDS011;4511;50.890;8.054;2023-11-19T03:51:57;2.63;;;2.00;;
8952;SDS011;4511;50.890;8.054;2023-11-19T03:54:26;2.73;;;1.80;;
8952;SDS011;4511;50.890;8.054;2023-11-19T03:56:53;2.10;;;1.87;;
8952;SDS011;4511;50.890;8.054;2023-11-19T03:59:18;3.90;;;2.07;;
8952;SDS011;4511;50.890;8.054;2023-11-19T04:01:45;3.30;;;2.13;;
8952;SDS011;4511;50.890;8.054;2023-11-19T04:04:12;2.67;;;2.00;;
8952;SDS011;4511;50.890;8.054;2023-11-19T04:06:39;5.77;;;2.17;;
8952;SDS011;4511;50.890;8.054;2023-11-19T04:09:06;2.87;;;1.83;;
8952;SDS011;4511;50.890;8.054;2023-11-19T04:11:35;3.20;;;1.90;;
8952;SDS011;4511;50.890;8.054;2023-11-19T04:14:02;3.13;;;1.90;;
8952;SDS011;4511;50.890;8.054;2023-11-19T04:16:28;2.17;;;2.00;;
8952;SDS011;4511;50.890;8.054;2023-11-19T04:18:55;3.37;;;2.03;;
8952;SDS011;4511;50.890;8.054;2023-11-19T04:21:22;2.87;;;2.20;;
8952;SDS011;4511;50.890;8.054;2023-11-19T04:23:49;4.57;;;1.90;;
8952;SDS011;4511;50.890;8.054;2023-11-19T04:26:15;2.10;;;1.90;;
8952;SDS011;4511;50.890;8.054;2023-11-19T04:28:43;4.20;;;1.87;;
8952;SDS011;4511;50.890;8.054;2023-11-19T04:31:10;3.07;;;2.10;;
8952;SDS011;4511;50.890;8.054;2023-11-19T04:33:37;5.27;;;2.23;;
8952;SDS011;4511;50.890;8.054;2023-11-19T04:36:04;3.87;;;2.10;;
8952;SDS011;4511;50.890;8.054;2023-11-19T04:38:32;3.50;;;2.03;;
8952;SDS011;4511;50.890;8.054;2023-11-19T04:40:59;5.50;;;2.20;;
8952;SDS011;4511;50.890;8.054;2023-11-19T04:43:27;6.10;;;2.10;;
8952;SDS011;4511;50.890;8.054;2023-11-19T04:45:55;2.83;;;2.00;;
8952;SDS011;4511;50.890;8.054;2023-11-19T04:48:22;2.43;;;2.10;;
8952;SDS011;4511;50.890;8.054;2023-11-19T04:50:49;4.60;;;1.80;;
8952;SDS011;4511;50.890;8.054;2023-11-19T04:53:17;6.30;;;2.17;;
8952;SDS011;4511;50.890;8.054;2023-11-19T04:55:44;4.40;;;1.90;;
8952;SDS011;4511;50.890;8.054;2023-11-19T04:58:11;5.40;;;1.93;;
8952;SDS011;4511;50.890;8.054;2023-11-19T05:00:37;3.83;;;2.10;;
8952;SDS011;4511;50.890;8.054;2023-11-19T05:03:05;2.83;;;2.30;;
8952;SDS011;4511;50.890;8.054;2023-11-19T05:05:33;5.17;;;2.27;;
8952;SDS011;4511;50.890;8.054;2023-11-19T05:08:00;2.77;;;2.10;;
8952;SDS011;4511;50.890;8.054;2023-11-19T05:10:26;6.80;;;2.33;;
8952;SDS011;4511;50.890;8.054;2023-11-19T05:12:53;8.63;;;2.20;;
8952;SDS011;4511;50.890;8.054;2023-11-19T05:15:21;5.50;;;2.20;;
8952;SDS011;4511;50.890;8.054;2023-11-19T05:17:48;5.07;;;2.27;;
8952;SDS011;4511;50.890;8.054;2023-11-19T05:20:16;5.97;;;2.50;;
8952;SDS011;4511;50.890;8.054;2023-11-19T05:22:43;5.60;;;2.07;;
8952;SDS011;4511;50.890;8.054;2023-11-19T05:25:10;7.20;;;2.30;;
8952;SDS011;4511;50.890;8.054;2023-11-19T05:27:37;7.47;;;2.50;;
8952;SDS011;4511;50.890;8.054;2023-11-19T05:30:06;7.10;;;2.00;;
8952;SDS011;4511;50.890;8.054;2023-11-19T05:32:35;7.43;;;2.50;;
8952;SDS011;4511;50.890;8.054;2023-11-19T05:35:02;8.47;;;2.43;;
8952;SDS011;4511;50.890;8.054;2023-11-19T05:37:30;7.70;;;2.50;;
8952;SDS011;4511;50.890;8.054;2023-11-19T05:39:57;6.17;;;2.20;;
8952;SDS011;4511;50.890;8.054;2023-11-19T05:42:25;6.40;;;2.53;;
8952;SDS011;4511;50.890;8.054;2023-11-19T05:44:52;5.80;;;2.33;;
8952;SDS011;4511;50.890;8.054;2023-11-19T05:47:19;4.80;;;2.23;;
8952;SDS011;4511;50.890;8.054;2023-11-19T05:49:45;3.37;;;2.00;;
8952;SDS011;4511;50.890;8.054;2023-11-19T05:52:12;4.30;;;2.30;;
8952;SDS011;4511;50.890;8.054;2023-11-19T05:54:40;6.63;;;2.27;;
8952;SDS011;4511;50.890;8.054;2023-11-19T05:57:07;3.93;;;2.23;;
8952;SDS011;4511;50.890;8.054;2023-11-19T05:59:34;3.23;;;2.10;;
8952;SDS011;4511;50.890;8.054;2023-11-19T06:02:01;4.63;;;2.27;;
8952;SDS011;4511;50.890;8.054;2023-11-19T06:04:28;6.33;;;2.33;;
8952;SDS011;4511;50.890;8.054;2023-11-19T06:06:55;4.37;;;2.40;;
8952;SDS011;4511;50.890;8.054;2023-11-19T06:09:22;6.77;;;3.00;;
8952;SDS011;4511;50.890;8.054;2023-11-19T06:11:50;10.60;;;2.83;;
8952;SDS011;4511;50.890;8.054;2023-11-19T06:14:17;6.07;;;2.60;;
8952;SDS011;4511;50.890;8.054;2023-11-19T06:16:43;8.37;;;2.93;;
8952;SDS011;4511;50.890;8.054;2023-11-19T06:19:10;8.87;;;3.20;;
8952;SDS011;4511;50.890;8.054;2023-11-19T06:21:37;11.57;;;3.00;;
8952;SDS011;4511;50.890;8.054;2023-11-19T06:24:04;8.80;;;2.97;;
8952;SDS011;4511;50.890;8.054;2023-11-19T06:26:31;9.13;;;3.10;;
8952;SDS011;4511;50.890;8.054;2023-11-19T06:28:59;10.53;;;3.40;;
8952;SDS011;4511;50.890;8.054;2023-11-19T06:31:25;7.17;;;2.90;;
8952;SDS011;4511;50.890;8.054;2023-11-19T06:33:52;15.57;;;3.57;;
8952;SDS011;4511;50.890;8.054;2023-11-19T06:36:19;9.67;;;2.87;;
8952;SDS011;4511;50.890;8.054;2023-11-19T06:38:46;13.93;;;3.17;;
8952;SDS011;4511;50.890;8.054;2023-11-19T06:41:13;12.83;;;3.10;;
8952;SDS011;4511;50.890;8.054;2023-11-19T06:43:40;11.53;;;3.23;;
8952;SDS011;4511;50.890;8.054;2023-11-19T06:46:15;7.63;;;3.27;;
8952;SDS011;4511;50.890;8.054;2023-11-19T06:48:42;13.13;;;3.20;;
8952;SDS011;4511;50.890;8.054;2023-11-19T06:51:09;10.17;;;3.17;;
8952;SDS011;4511;50.890;8.054;2023-11-19T06:53:36;12.13;;;3.10;;
8952;SDS011;4511;50.890;8.054;2023-11-19T06:56:05;19.90;;;3.70;;
8952;SDS011;4511;50.890;8.054;2023-11-19T06:58:35;7.97;;;3.10;;
8952;SDS011;4511;50.890;8.054;2023-11-19T07:01:03;13.60;;;3.30;;
8952;SDS011;4511;50.890;8.054;2023-11-19T07:03:34;15.67;;;3.70;;
8952;SDS011;4511;50.890;8.054;2023-11-19T07:06:01;13.10;;;3.47;;
8952;SDS011;4511;50.890;8.054;2023-11-19T07:08:30;13.13;;;3.40;;
8952;SDS011;4511;50.890;8.054;2023-11-19T07:10:57;14.93;;;3.80;;
8952;SDS011;4511;50.890;8.054;2023-11-19T07:13:24;14.20;;;3.63;;
8952;SDS011;4511;50.890;8.054;2023-11-19T07:15:52;13.47;;;3.60;;
8952;SDS011;4511;50.890;8.054;2023-11-19T07:18:19;15.07;;;3.53;;
8952;SDS011;4511;50.890;8.054;2023-11-19T07:20:48;13.07;;;3.53;;
8952;SDS011;4511;50.890;8.054;2023-11-19T07:23:15;14.87;;;4.07;;
8952;SDS011;4511;50.890;8.054;2023-11-19T07:25:42;12.57;;;3.80;;
8952;SDS011;4511;50.890;8.054;2023-11-19T07:28:10;14.73;;;4.10;;
8952;SDS011;4511;50.890;8.054;2023-11-19T07:30:37;10.73;;;3.70;;
8952;SDS011;4511;50.890;8.054;2023-11-19T07:33:04;15.03;;;3.97;;
8952;SDS011;4511;50.890;8.054;2023-11-19T07:35:31;14.33;;;3.63;;
8952;SDS011;4511;50.890;8.054;2023-11-19T07:37:59;19.30;;;4.20;;
8952;SDS011;4511;50.890;8.054;2023-11-19T07:40:26;16.87;;;4.20;;
8952;SDS011;4511;50.890;8.054;2023-11-19T07:42:53;14.20;;;3.80;;
8952;SDS011;4511;50.890;8.054;2023-11-19T07:45:20;19.17;;;4.50;;
8952;SDS011;4511;50.890;8.054;2023-11-19T07:47:47;18.50;;;4.00;;
8952;SDS011;4511;50.890;8.054;2023-11-19T07:50:13;15.83;;;4.47;;
8952;SDS011;4511;50.890;8.054;2023-11-19T07:52:41;16.33;;;4.00;;
8952;SDS011;4511;50.890;8.054;2023-11-19T07:55:10;18.77;;;4.27;;
8952;SDS011;4511;50.890;8.054;2023-11-19T07:57:37;15.20;;;4.13;;
8952;SDS011;4511;50.890;8.054;2023-11-19T08:00:04;19.03;;;4.50;;
8952;SDS011;4511;50.890;8.054;2023-11-19T08:02:32;16.57;;;3.80;;
8952;SDS011;4511;50.890;8.054;2023-11-19T08:04:59;15.57;;;3.40;;
8952;SDS011;4511;50.890;8.054;2023-11-19T08:07:25;18.90;;;4.60;;
8952;SDS011;4511;50.890;8.054;2023-11-19T08:09:52;17.10;;;4.07;;
8952;SDS011;4511;50.890;8.054;2023-11-19T08:12:20;17.00;;;4.37;;
8952;SDS011;4511;50.890;8.054;2023-11-19T08:14:47;18.60;;;4.47;;
8952;SDS011;4511;50.890;8.054;2023-11-19T08:17:14;13.20;;;4.37;;
8952;SDS011;4511;50.890;8.054;2023-11-19T08:19:42;16.80;;;3.97;;
8952;SDS011;4511;50.890;8.054;2023-11-19T08:22:08;18.83;;;4.07;;
8952;SDS011;4511;50.890;8.054;2023-11-19T08:24:35;17.10;;;4.03;;
8952;SDS011;4511;50.890;8.054;2023-11-19T08:27:02;14.67;;;3.87;;
8952;SDS011;4511;50.890;8.054;2023-11-19T08:29:34;12.47;;;3.70;;
8952;SDS011;4511;50.890;8.054;2023-11-19T08:32:01;14.70;;;3.60;;
8952;SDS011;4511;50.890;8.054;2023-11-19T08:34:28;18.97;;;4.17;;
8952;SDS011;4511;50.890;8.054;2023-11-19T08:36:55;16.50;;;4.00;;
8952;SDS011;4511;50.890;8.054;2023-11-19T08:39:22;14.93;;;4.23;;
8952;SDS011;4511;50.890;8.054;2023-11-19T08:41:49;14.17;;;3.60;;
8952;SDS011;4511;50.890;8.054;2023-11-19T08:44:16;21.70;;;4.43;;
8952;SDS011;4511;50.890;8.054;2023-11-19T08:46:49;14.53;;;3.67;;
8952;SDS011;4511;50.890;8.054;2023-11-19T08:49:15;14.40;;;3.97;;
8952;SDS011;4511;50.890;8.054;2023-11-19T08:51:42;16.40;;;4.10;;
8952;SDS011;4511;50.890;8.054;2023-11-19T08:54:10;17.87;;;4.70;;
8952;SDS011;4511;50.890;8.054;2023-11-19T08:56:37;17.13;;;4.13;;
8952;SDS011;4511;50.890;8.054;2023-11-19T08:59:04;21.73;;;4.27;;
8952;SDS011;4511;50.890;8.054;2023-11-19T09:01:31;19.53;;;4.03;;
8952;SDS011;4511;50.890;8.054;2023-11-19T09:03:59;16.73;;;4.30;;
8952;SDS011;4511;50.890;8.054;2023-11-19T09:06:26;19.90;;;4.60;;
8952;SDS011;4511;50.890;8.054;2023-11-19T09:08:52;19.63;;;4.87;;
8952;SDS011;4511;50.890;8.054;2023-11-19T09:11:23;18.77;;;4.57;;
8952;SDS011;4511;50.890;8.054;2023-11-19T09:13:50;13.30;;;4.20;;
8952;SDS011;4511;50.890;8.054;2023-11-19T09:16:16;12.47;;;3.57;;
8952;SDS011;4511;50.890;8.054;2023-11-19T09:18:43;17.07;;;4.27;;
8952;SDS011;4511;50.890;8.054;2023-11-19T09:21:11;18.10;;;3.97;;
8952;SDS011;4511;50.890;8.054;2023-11-19T09:23:38;21.10;;;4.50;;
8952;SDS011;4511;50.890;8.054;2023-11-19T09:26:06;15.63;;;3.40;;
8952;SDS011;4511;50.890;8.054;2023-11-19T09:28:35;13.93;;;3.83;;
8952;SDS011;4511;50.890;8.054;2023-11-19T09:31:01;15.37;;;4.37;;
8952;SDS011;4511;50.890;8.054;2023-11-19T09:33:29;20.73;;;4.30;;
8952;SDS011;4511;50.890;8.054;2023-11-19T09:35:56;14.33;;;3.93;;
8952;SDS011;4511;50.890;8.054;2023-11-19T09:38:25;11.60;;;3.70;;
8952;SDS011;4511;50.890;8.054;2023-11-19T09:40:51;16.10;;;4.13;;
8952;SDS011;4511;50.890;8.054;2023-11-19T09:43:18;13.27;;;3.90;;
8952;SDS011;4511;50.890;8.054;2023-11-19T09:45:47;13.83;;;4.07;;
8952;SDS011;4511;50.890;8.054;2023-11-19T09:48:16;17.43;;;4.40;;
8952;SDS011;4511;50.890;8.054;2023-11-19T09:50:44;19.93;;;4.37;;
8952;SDS011;4511;50.890;8.054;2023-11-19T09:53:12;25.70;;;4.67;;
8952;SDS011;4511;50.890;8.054;2023-11-19T09:55:41;17.40;;;4.37;;
8952;SDS011;4511;50.890;8.054;2023-11-19T09:58:09;18.93;;;4.53;;
8952;SDS011;4511;50.890;8.054;2023-11-19T10:00:38;15.93;;;4.10;;
8952;SDS011;4511;50.890;8.054;2023-11-19T10:03:05;16.63;;;4.07;;
8952;SDS011;4511;50.890;8.054;2023-11-19T10:05:35;19.13;;;4.53;;
8952;SDS011;4511;50.890;8.054;2023-11-19T10:08:03;18.23;;;3.57;;
8952;SDS011;4511;50.890;8.054;2023-11-19T10:10:30;22.73;;;4.97;;
8952;SDS011;4511;50.890;8.054;2023-11-19T10:12:58;18.23;;;4.07;;
8952;SDS011;4511;50.890;8.054;2023-11-19T10:15:26;18.17;;;4.07;;
8952;SDS011;4511;50.890;8.054;2023-11-19T10:17:54;16.13;;;4.77;;
8952;SDS011;4511;50.890;8.054;2023-11-19T10:20:21;19.63;;;4.73;;
8952;SDS011;4511;50.890;8.054;2023-11-19T10:22:50;16.83;;;4.17;;
8952;SDS011;4511;50.890;8.054;2023-11-19T10:25:22;16.00;;;4.67;;
8952;SDS011;4511;50.890;8.054;2023-11-19T10:27:49;15.87;;;4.20;;
8952;SDS011;4511;50.890;8.054;2023-11-19T10:30:18;17.53;;;4.30;;
8952;SDS011;4511;50.890;8.054;2023-11-19T10:32:50;15.63;;;3.90;;
8952;SDS011;4511;50.890;8.054;2023-11-19T10:35:29;16.07;;;4.10;;
8952;SDS011;4511;50.890;8.054;2023-11-19T10:37:58;21.43;;;4.93;;
8952;SDS011;4511;50.890;8.054;2023-11-19T10:40:31;16.23;;;4.23;;
8952;SDS011;4511;50.890;8.054;2023-11-19T10:43:04;16.33;;;4.27;;
8952;SDS011;4511;50.890;8.054;2023-11-19T10:45:34;18.23;;;4.43;;
8952;SDS011;4511;50.890;8.054;2023-11-19T10:47:59;19.40;;;4.23;;
8952;SDS011;4511;50.890;8.054;2023-11-19T10:50:27;19.90;;;4.50;;
8952;SDS011;4511;50.890;8.054;2023-11-19T10:52:55;17.57;;;4.43;;
8952;SDS011;4511;50.890;8.054;2023-11-19T10:55:25;20.43;;;4.20;;
8952;SDS011;4511;50.890;8.054;2023-11-19T10:57:53;20.17;;;4.40;;
8952;SDS011;4511;50.890;8.054;2023-11-19T11:00:24;18.83;;;4.40;;
8952;SDS011;4511;50.890;8.054;2023-11-19T11:02:55;19.77;;;4.43;;
8952;SDS011;4511;50.890;8.054;2023-11-19T11:05:26;18.20;;;4.40;;
8952;SDS011;4511;50.890;8.054;2023-11-19T11:07:54;16.23;;;4.10;;
8952;SDS011;4511;50.890;8.054;2023-11-19T11:10:22;21.00;;;4.30;;
8952;SDS011;4511;50.890;8.054;2023-11-19T11:12:52;16.47;;;4.47;;
8952;SDS011;4511;50.890;8.054;2023-11-19T11:15:23;17.83;;;4.00;;
8952;SDS011;4511;50.890;8.054;2023-11-19T11:17:53;19.87;;;4.33;;
8952;SDS011;4511;50.890;8.054;2023-11-19T11:20:23;18.77;;;4.57;;
8952;SDS011;4511;50.890;8.054;2023-11-19T11:22:53;24.23;;;4.63;;
8952;SDS011;4511;50.890;8.054;2023-11-19T11:25:33;19.70;;;4.43;;
8952;SDS011;4511;50.890;8.054;2023-11-19T11:28:20;18.30;;;4.30;;
8952;SDS011;4511;50.890;8.054;2023-11-19T11:31:00;18.40;;;3.57;;
8952;SDS011;4511;50.890;8.054;2023-11-19T11:33:40;13.93;;;4.17;;
8952;SDS011;4511;50.890;8.054;2023-11-19T11:36:21;16.90;;;4.27;;
8952;SDS011;4511;50.890;8.054;2023-11-19T11:38:49;15.77;;;4.10;;
8952;SDS011;4511;50.890;8.054;2023-11-19T11:41:17;17.67;;;4.50;;
8952;SDS011;4511;50.890;8.054;2023-11-19T11:43:45;16.50;;;4.00;;
8952;SDS011;4511;50.890;8.054;2023-11-19T11:49:18;16.80;;;4.53;;
8952;SDS011;4511;50.890;8.054;2023-11-19T11:51:57;15.00;;;3.90;;
8952;SDS011;4511;50.890;8.054;2023-11-19T11:54:28;13.53;;;4.07;;
8952;SDS011;4511;50.890;8.054;2023-11-19T11:57:02;15.10;;;4.00;;
8952;SDS011;4511;50.890;8.054;2023-11-19T11:59:36;20.77;;;4.30;;
8952;SDS011;4511;50.890;8.054;2023-11-19T12:02:13;14.40;;;4.30;;
8952;SDS011;4511;50.890;8.054;2023-11-19T12:04:44;18.07;;;4.27;;
8952;SDS011;4511;50.890;8.054;2023-11-19T12:07:15;21.43;;;4.50;;
8952;SDS011;4511;50.890;8.054;2023-11-19T12:09:47;19.50;;;4.23;;
8952;SDS011;4511;50.890;8.054;2023-11-19T12:12:20;18.23;;;4.30;;
8952;SDS011;4511;50.890;8.054;2023-11-19T12:15:00;17.23;;;4.37;;
8952;SDS011;4511;50.890;8.054;2023-11-19T12:17:43;24.43;;;5.40;;
8952;SDS011;4511;50.890;8.054;2023-11-19T12:20:15;22.03;;;4.57;;
8952;SDS011;4511;50.890;8.054;2023-11-19T12:22:43;16.00;;;4.70;;
8952;SDS011;4511;50.890;8.054;2023-11-19T12:25:12;16.07;;;4.30;;
8952;SDS011;4511;50.890;8.054;2023-11-19T12:27:39;22.90;;;4.60;;
8952;SDS011;4511;50.890;8.054;2023-11-19T12:30:07;18.63;;;4.20;;
8952;SDS011;4511;50.890;8.054;2023-11-19T12:32:38;21.40;;;4.20;;
8952;SDS011;4511;50.890;8.054;2023-11-19T12:35:06;15.37;;;4.47;;
8952;SDS011;4511;50.890;8.054;2023-11-19T12:37:40;22.93;;;5.07;;
8952;SDS011;4511;50.890;8.054;2023-11-19T12:40:16;18.63;;;4.57;;
8952;SDS011;4511;50.890;8.054;2023-11-19T12:42:44;14.40;;;3.93;;
8952;SDS011;4511;50.890;8.054;2023-11-19T12:45:11;12.93;;;3.83;;
8952;SDS011;4511;50.890;8.054;2023-11-19T12:47:38;17.37;;;4.30;;
8952;SDS011;4511;50.890;8.054;2023-11-19T12:50:06;17.00;;;4.00;;
8952;SDS011;4511;50.890;8.054;2023-11-19T12:52:34;18.37;;;3.87;;
8952;SDS011;4511;50.890;8.054;2023-11-19T12:55:02;17.87;;;4.83;;
8952;SDS011;4511;50.890;8.054;2023-11-19T12:57:35;13.00;;;3.50;;
8952;SDS011;4511;50.890;8.054;2023-11-19T13:00:03;13.10;;;3.93;;
8952;SDS011;4511;50.890;8.054;2023-11-19T13:02:46;12.50;;;3.40;;
8952;SDS011;4511;50.890;8.054;2023-11-19T13:05:23;12.50;;;3.57;;
8952;SDS011;4511;50.890;8.054;2023-11-19T13:07:51;11.63;;;3.73;;
8952;SDS011;4511;50.890;8.054;2023-11-19T13:10:25;11.87;;;3.40;;
8952;SDS011;4511;50.890;8.054;2023-11-19T13:13:02;16.10;;;4.10;;
8952;SDS011;4511;50.890;8.054;2023-11-19T13:15:30;12.40;;;4.03;;
8952;SDS011;4511;50.890;8.054;2023-11-19T13:17:57;17.37;;;4.40;;
8952;SDS011;4511;50.890;8.054;2023-11-19T13:20:24;13.43;;;3.57;;
8952;SDS011;4511;50.890;8.054;2023-11-19T13:22:57;12.40;;;4.00;;
8952;SDS011;4511;50.890;8.054;2023-11-19T13:25:26;16.67;;;4.00;;
8952;SDS011;4511;50.890;8.054;2023-11-19T13:27:53;12.13;;;4.10;;
8952;SDS011;4511;50.890;8.054;2023-11-19T13:30:20;14.93;;;4.30;;
8952;SDS011;4511;50.890;8.054;2023-11-19T13:32:48;13.90;;;4.00;;
8952;SDS011;4511;50.890;8.054;2023-11-19T13:35:14;12.77;;;3.73;;
8952;SDS011;4511;50.890;8.054;2023-11-19T13:37:42;9.77;;;3.53;;
8952;SDS011;4511;50.890;8.054;2023-11-19T13:40:09;14.67;;;3.90;;
8952;SDS011;4511;50.890;8.054;2023-11-19T13:42:40;15.20;;;4.00;;
8952;SDS011;4511;50.890;8.054;2023-11-19T13:45:08;12.77;;;3.77;;
8952;SDS011;4511;50.890;8.054;2023-11-19T13:47:37;13.07;;;3.50;;
8952;SDS011;4511;50.890;8.054;2023-11-19T13:50:06;14.57;;;3.90;;
8952;SDS011;4511;50.890;8.054;2023-11-19T13:52:34;14.53;;;3.63;;
8952;SDS011;4511;50.890;8.054;2023-11-19T13:55:02;19.27;;;4.20;;
8952;SDS011;4511;50.890;8.054;2023-11-19T13:57:29;13.93;;;3.93;;
8952;SDS011;4511;50.890;8.054;2023-11-19T13:59:58;13.00;;;3.57;;
8952;SDS011;4511;50.890;8.054;2023-11-19T14:02:25;15.83;;;4.23;;
8952;SDS011;4511;50.890;8.054;2023-11-19T14:04:51;16.07;;;3.87;;
8952;SDS011;4511;50.890;8.054;2023-11-19T14:07:18;9.67;;;3.70;;
8952;SDS011;4511;50.890;8.054;2023-11-19T14:09:45;13.73;;;4.10;;
8952;SDS011;4511;50.890;8.054;2023-11-19T14:12:11;16.03;;;3.90;;
8952;SDS011;4511;50.890;8.054;2023-11-19T14:14:38;13.97;;;3.90;;
8952;SDS011;4511;50.890;8.054;2023-11-19T14:17:08;18.73;;;4.40;;
8952;SDS011;4511;50.890;8.054;2023-11-19T14:19:36;12.77;;;4.07;;
8952;SDS011;4511;50.890;8.054;2023-11-19T14:22:03;14.97;;;4.17;;
8952;SDS011;4511;50.890;8.054;2023-11-19T14:24:30;15.17;;;4.27;;
8952;SDS011;4511;50.890;8.054;2023-11-19T14:26:56;10.17;;;3.60;;
8952;SDS011;4511;50.890;8.054;2023-11-19T14:29:24;15.03;;;3.60;;
8952;SDS011;4511;50.890;8.054;2023-11-19T14:31:52;12.33;;;3.33;;
8952;SDS011;4511;50.890;8.054;2023-11-19T14:34:20;11.20;;;3.23;;
8952;SDS011;4511;50.890;8.054;2023-11-19T14:36:47;13.07;;;4.10;;
8952;SDS011;4511;50.890;8.054;2023-11-19T14:39:14;16.17;;;3.80;;
8952;SDS011;4511;50.890;8.054;2023-11-19T14:41:42;14.90;;;3.83;;
8952;SDS011;4511;50.890;8.054;2023-11-19T14:44:09;14.40;;;4.23;;
8952;SDS011;4511;50.890;8.054;2023-11-19T14:46:36;13.60;;;3.60;;
8952;SDS011;4511;50.890;8.054;2023-11-19T14:49:03;7.87;;;3.13;;
8952;SDS011;4511;50.890;8.054;2023-11-19T14:51:31;19.03;;;4.00;;
8952;SDS011;4511;50.890;8.054;2023-11-19T14:54:01;15.13;;;3.77;;
8952;SDS011;4511;50.890;8.054;2023-11-19T14:56:28;13.67;;;4.27;;
8952;SDS011;4511;50.890;8.054;2023-11-19T14:58:54;10.20;;;3.70;;
8952;SDS011;4511;50.890;8.054;2023-11-19T15:01:23;11.97;;;3.77;;
8952;SDS011;4511;50.890;8.054;2023-11-19T15:03:50;14.17;;;3.93;;
8952;SDS011;4511;50.890;8.054;2023-11-19T15:06:16;13.10;;;3.53;;
8952;SDS011;4511;50.890;8.054;2023-11-19T15:08:45;14.03;;;4.03;;
8952;SDS011;4511;50.890;8.054;2023-11-19T15:11:12;14.97;;;4.20;;
8952;SDS011;4511;50.890;8.054;2023-11-19T15:13:39;14.20;;;4.23;;
8952;SDS011;4511;50.890;8.054;2023-11-19T15:16:07;13.23;;;4.00;;
8952;SDS011;4511;50.890;8.054;2023-11-19T15:18:35;15.30;;;3.83;;
8952;SDS011;4511;50.890;8.054;2023-11-19T15:21:02;14.27;;;3.73;;